Roanoke, Ohio
Current Conditions -  °F | °C
As of 11:53 AM on Friday 28 Nov 2014 (Local Time) from KPHD Reporting Station
Overcast Overcast  
Wind Chill: -3°   Ceiling: 2900
Heat Index: -3°   Visibility: 10mi
Dew Point: -9°   Wind: 0mph
Humidity: 66%   Direction: NA
Pressure: 30.34"   Gusts: NA
Location:  40.3767°N, 81.2875°W
Report Text: KPHD 281653Z AUTO 00000KT 10SM BKN029 OVC100 M03/M09 A3034 RMK AO2 SLP285 T10331089
Loading
Personal Weather Stations






























Interactive Weather Map New forecast layout! Learn more

10-Day Weather Forecast

Advertisements
Track Severe Weather on mobile